createdAt,value
2019-01-20T00:00:07.953Z,4.50
2019-01-20T00:02:37.168Z,2.50
2019-01-20T00:05:08.380Z,2.53
2019-01-20T00:07:37.540Z,2.30
2019-01-20T00:10:08.634Z,2.53
2019-01-20T00:12:37.621Z,2.77
2019-01-20T00:15:07.333Z,2.60
2019-01-20T00:17:36.487Z,2.60
2019-01-20T00:20:08.264Z,2.83
2019-01-20T00:22:37.421Z,2.40
2019-01-20T00:25:06.950Z,1.97
2019-01-20T00:27:36.089Z,2.63
2019-01-20T00:30:06.743Z,2.50
2019-01-20T00:32:35.947Z,2.43
2019-01-20T00:35:05.838Z,2.43
2019-01-20T00:37:34.856Z,2.63
2019-01-20T00:40:04.253Z,2.80
2019-01-20T00:42:33.450Z,2.37
2019-01-20T00:45:03.245Z,2.47
2019-01-20T00:47:32.577Z,1.97
2019-01-20T00:50:01.735Z,2.27
2019-01-20T00:52:31.572Z,1.93
2019-01-20T00:55:01.262Z,3.83
2019-01-20T00:57:30.494Z,4.60
2019-01-20T00:59:59.606Z,2.43
2019-01-20T01:02:28.957Z,1.93
2019-01-20T01:04:58.513Z,2.07
2019-01-20T01:07:27.817Z,2.27
2019-01-20T01:09:56.998Z,1.57
2019-01-20T01:12:26.178Z,2.30
2019-01-20T01:14:55.294Z,2.03
2019-01-20T01:17:24.387Z,2.40
2019-01-20T01:19:53.498Z,2.13
2019-01-20T01:22:22.680Z,2.33
2019-01-20T01:24:51.852Z,3.13
2019-01-20T01:27:20.974Z,2.10
2019-01-20T01:29:51.030Z,2.77
2019-01-20T01:32:20.094Z,2.40
2019-01-20T01:34:49.140Z,2.83
2019-01-20T01:37:18.230Z,3.77
2019-01-20T01:39:47.336Z,3.07
2019-01-20T01:42:16.441Z,2.90
2019-01-20T01:44:45.567Z,2.73
2019-01-20T01:47:15.165Z,2.30
2019-01-20T01:49:44.340Z,2.83
2019-01-20T01:52:13.858Z,2.43
2019-01-20T01:54:43.682Z,2.80
2019-01-20T01:57:12.838Z,2.83
2019-01-20T01:59:41.940Z,2.67
2019-01-20T02:02:11.034Z,2.63
2019-01-20T02:04:40.161Z,2.60
2019-01-20T02:07:09.383Z,2.27
2019-01-20T02:09:39.240Z,2.23
2019-01-20T02:12:08.430Z,2.83
2019-01-20T02:14:37.540Z,2.23
2019-01-20T02:17:06.636Z,2.40
2019-01-20T02:19:37.456Z,2.37
2019-01-20T02:22:08.128Z,2.50
2019-01-20T02:24:37.197Z,2.60
2019-01-20T02:27:06.278Z,2.90
2019-01-20T02:29:35.414Z,2.47
2019-01-20T02:32:04.780Z,3.00
2019-01-20T02:34:33.784Z,2.77
2019-01-20T02:37:02.858Z,2.97
2019-01-20T02:39:31.900Z,3.10
2019-01-20T02:42:01.074Z,3.47
2019-01-20T02:44:30.113Z,2.83
2019-01-20T02:46:59.172Z,3.17
2019-01-20T02:49:28.651Z,4.00
2019-01-20T02:51:57.734Z,3.87
2019-01-20T02:54:26.877Z,4.97
2019-01-20T02:56:56.032Z,5.13
2019-01-20T02:59:25.589Z,4.83
2019-01-20T03:01:54.672Z,4.97
2019-01-20T03:04:25.548Z,5.53
2019-01-20T03:06:52.981Z,5.10
2019-01-20T03:09:22.042Z,5.13
2019-01-20T03:11:51.199Z,5.73
2019-01-20T03:14:20.301Z,5.87
2019-01-20T03:16:49.461Z,6.40
2019-01-20T03:19:18.650Z,5.70
2019-01-20T03:21:47.828Z,5.80
2019-01-20T03:24:16.839Z,5.97
2019-01-20T03:26:45.907Z,5.37
2019-01-20T03:29:15.013Z,5.53
2019-01-20T03:31:44.073Z,5.80
2019-01-20T03:34:13.152Z,6.23
2019-01-20T03:36:42.315Z,6.03
2019-01-20T03:39:11.610Z,5.40
2019-01-20T03:41:40.970Z,5.23
2019-01-20T03:44:10.042Z,5.87
2019-01-20T03:46:39.100Z,5.90
2019-01-20T03:49:08.163Z,5.90
2019-01-20T03:51:37.278Z,4.70
2019-01-20T03:54:06.493Z,5.17
2019-01-20T03:56:35.676Z,5.33
2019-01-20T03:59:04.922Z,5.73
2019-01-20T04:01:34.668Z,5.17
2019-01-20T04:04:03.849Z,5.63
2019-01-20T04:06:32.890Z,6.53
2019-01-20T04:09:01.997Z,4.93
2019-01-20T04:11:31.133Z,4.90
2019-01-20T04:14:00.415Z,4.80
2019-01-20T04:16:29.526Z,5.97
2019-01-20T04:18:58.644Z,5.47
2019-01-20T04:21:27.696Z,5.87
2019-01-20T04:23:56.846Z,5.73
2019-01-20T04:26:25.882Z,6.00
2019-01-20T04:28:55.067Z,5.17
2019-01-20T04:31:24.193Z,5.87
2019-01-20T04:33:53.430Z,5.77
2019-01-20T04:36:22.831Z,5.90
2019-01-20T04:38:51.913Z,5.33
2019-01-20T04:41:20.993Z,5.43
2019-01-20T04:43:50.049Z,5.30
2019-01-20T04:46:19.191Z,4.97
2019-01-20T04:48:48.234Z,5.30
2019-01-20T04:51:17.349Z,6.10
2019-01-20T04:53:46.527Z,6.33
2019-01-20T04:56:15.674Z,6.43
2019-01-20T04:58:45.248Z,5.07
2019-01-20T05:01:14.411Z,5.47
2019-01-20T05:03:43.478Z,6.40
2019-01-20T05:06:12.601Z,5.30
2019-01-20T05:08:44.502Z,5.93
2019-01-20T05:11:13.598Z,5.90
2019-01-20T05:13:42.796Z,5.63
2019-01-20T05:16:11.875Z,5.50
2019-01-20T05:18:41.066Z,5.20
2019-01-20T05:21:10.938Z,5.27
2019-01-20T05:23:40.047Z,4.60
2019-01-20T05:26:09.212Z,5.47
2019-01-20T05:28:38.362Z,4.97
2019-01-20T05:31:07.521Z,5.70
2019-01-20T05:33:36.697Z,6.00
2019-01-20T05:36:05.996Z,5.00
2019-01-20T05:38:35.179Z,5.17
2019-01-20T05:41:04.322Z,5.73
2019-01-20T05:43:33.383Z,5.50
2019-01-20T05:46:02.509Z,6.30
2019-01-20T05:48:32.864Z,5.83
2019-01-20T05:51:00.837Z,6.17
2019-01-20T05:53:30.142Z,5.30
2019-01-20T05:55:59.867Z,5.73
2019-01-20T05:58:28.938Z,6.10
2019-01-20T06:00:58.055Z,5.60
2019-01-20T06:03:27.219Z,5.60
2019-01-20T06:05:56.439Z,6.33
2019-01-20T06:08:25.515Z,5.23
2019-01-20T06:10:54.612Z,5.93
2019-01-20T06:13:23.736Z,6.37
2019-01-20T06:15:52.789Z,6.13
2019-01-20T06:18:21.933Z,6.13
2019-01-20T06:20:51.063Z,6.50
2019-01-20T06:23:21.022Z,6.60
2019-01-20T06:25:51.662Z,6.13
2019-01-20T06:43:09.794Z,6.97
2019-01-20T06:45:39.082Z,6.07
2019-01-20T06:48:08.204Z,6.43
2019-01-20T06:50:37.485Z,6.50
2019-01-20T06:53:06.618Z,6.87
2019-01-20T06:55:35.741Z,6.70
2019-01-20T06:58:05.071Z,7.37
2019-01-20T07:00:34.176Z,6.40
2019-01-20T07:03:03.280Z,6.97
2019-01-20T07:05:32.426Z,6.73
2019-01-20T07:08:01.591Z,6.53
2019-01-20T07:10:30.839Z,6.47
2019-01-20T07:12:59.900Z,7.53
2019-01-20T07:15:29.062Z,6.10
2019-01-20T07:17:58.141Z,6.77
2019-01-20T07:20:27.250Z,6.13
2019-01-20T07:22:56.490Z,6.30
2019-01-20T07:25:25.659Z,6.90
2019-01-20T07:27:54.767Z,6.53
2019-01-20T07:30:24.431Z,7.00
2019-01-20T07:32:53.554Z,6.50
2019-01-20T07:35:22.905Z,7.17
2019-01-20T07:37:52.334Z,7.27
2019-01-20T07:40:23.125Z,6.23
2019-01-20T07:42:52.230Z,6.87
2019-01-20T07:45:21.412Z,6.53
2019-01-20T07:47:50.662Z,7.10
2019-01-20T07:50:21.576Z,6.73
2019-01-20T07:52:50.734Z,7.43
2019-01-20T07:55:20.053Z,10.63
2019-01-20T07:57:49.223Z,11.37
2019-01-20T08:00:21.454Z,11.60
2019-01-20T08:02:50.698Z,10.30
2019-01-20T08:05:20.087Z,7.57
2019-01-20T08:07:49.495Z,7.07
2019-01-20T08:10:23.609Z,7.73
2019-01-20T08:12:52.729Z,7.57
2019-01-20T08:15:21.923Z,11.93
2019-01-20T08:17:51.144Z,11.07
2019-01-20T08:20:20.654Z,8.93
2019-01-20T08:22:49.956Z,7.50
2019-01-20T08:25:19.208Z,9.57
2019-01-20T08:27:48.429Z,8.27
2019-01-20T08:30:19.452Z,7.57
2019-01-20T08:32:48.661Z,7.53
2019-01-20T08:35:17.836Z,7.73
2019-01-20T08:37:47.140Z,8.30
2019-01-20T08:40:21.996Z,8.30
2019-01-20T08:42:51.110Z,8.87
2019-01-20T08:45:29.360Z,7.53
2019-01-20T08:48:03.787Z,9.80
2019-01-20T08:50:32.964Z,8.30
2019-01-20T08:53:02.083Z,8.03
2019-01-20T08:55:31.280Z,8.03
2019-01-20T08:58:00.485Z,7.83
2019-01-20T09:00:29.578Z,9.07
2019-01-20T09:02:58.680Z,8.73
2019-01-20T09:05:27.801Z,8.40
2019-01-20T09:07:56.882Z,8.70
2019-01-20T09:10:27.711Z,9.63
2019-01-20T09:12:59.759Z,8.87
2019-01-20T09:15:29.070Z,9.27
2019-01-20T09:17:58.786Z,8.27
2019-01-20T09:20:27.981Z,8.63
2019-01-20T09:22:57.102Z,8.67
2019-01-20T09:25:26.268Z,9.10
2019-01-20T09:27:55.393Z,9.40
2019-01-20T09:30:24.581Z,9.10
2019-01-20T09:32:53.778Z,8.73
2019-01-20T09:35:23.782Z,9.23
2019-01-20T09:37:52.982Z,9.00
2019-01-20T09:40:22.183Z,10.13
2019-01-20T09:42:51.682Z,9.10
2019-01-20T09:45:26.847Z,8.97
2019-01-20T09:47:57.459Z,11.07
2019-01-20T09:50:26.576Z,10.40
2019-01-20T09:52:55.952Z,9.93
2019-01-20T09:55:26.576Z,10.40
2019-01-20T09:57:55.950Z,10.73
2019-01-20T10:00:26.931Z,10.27
2019-01-20T10:02:56.669Z,10.53
2019-01-20T10:05:26.438Z,11.90
2019-01-20T10:07:55.738Z,11.67
2019-01-20T10:10:24.811Z,9.93
2019-01-20T10:12:53.931Z,9.13
2019-01-20T10:15:26.916Z,10.00
2019-01-20T10:17:56.108Z,10.93
2019-01-20T10:20:28.275Z,10.30
2019-01-20T10:22:57.321Z,10.60
2019-01-20T10:25:26.479Z,10.57
2019-01-20T10:27:55.709Z,10.27
2019-01-20T10:30:27.252Z,10.97
2019-01-20T10:32:56.421Z,11.10
2019-01-20T10:35:29.957Z,12.57
2019-01-20T10:38:00.305Z,12.00
2019-01-20T10:40:32.296Z,11.97
2019-01-20T10:43:00.375Z,12.40
2019-01-20T10:45:29.481Z,12.17
2019-01-20T10:47:58.539Z,11.47
2019-01-20T10:50:27.861Z,11.50
2019-01-20T10:52:57.363Z,11.27
2019-01-20T10:55:26.431Z,11.00
2019-01-20T10:57:55.589Z,11.07
2019-01-20T11:00:27.325Z,12.10
2019-01-20T11:02:56.792Z,10.90
2019-01-20T11:05:30.342Z,12.77
2019-01-20T11:07:55.144Z,11.47
2019-01-20T11:10:25.564Z,10.77
2019-01-20T11:12:55.687Z,10.17
2019-01-20T11:15:24.797Z,10.80
2019-01-20T11:17:53.995Z,10.27
2019-01-20T11:20:23.441Z,11.80
2019-01-20T11:22:52.623Z,10.70
2019-01-20T11:25:26.631Z,10.27
2019-01-20T11:27:55.761Z,11.03
2019-01-20T11:30:24.955Z,10.10
2019-01-20T11:32:54.097Z,9.23
2019-01-20T11:35:23.975Z,10.67
2019-01-20T11:37:53.572Z,10.43
2019-01-20T11:40:25.299Z,10.33
2019-01-20T11:42:58.272Z,12.13
2019-01-20T11:45:34.593Z,10.27
2019-01-20T11:48:04.744Z,14.30
2019-01-20T11:50:35.365Z,10.83
2019-01-20T11:53:04.994Z,11.17
2019-01-20T11:55:34.484Z,10.37
2019-01-20T11:58:03.682Z,10.90
2019-01-20T12:00:35.853Z,10.13
2019-01-20T12:03:05.615Z,10.83
2019-01-20T12:05:36.243Z,10.60
2019-01-20T12:08:05.553Z,10.87
2019-01-20T12:10:35.946Z,11.30
2019-01-20T12:13:08.472Z,9.93
2019-01-20T12:15:39.375Z,11.93
2019-01-20T12:18:08.892Z,11.43
2019-01-20T12:20:41.000Z,12.27
2019-01-20T12:23:10.862Z,11.47
2019-01-20T12:25:40.270Z,10.10
2019-01-20T12:28:09.653Z,9.70
2019-01-20T12:30:39.848Z,9.50
2019-01-20T12:33:14.014Z,11.63
2019-01-20T12:35:43.104Z,10.20
2019-01-20T12:38:12.316Z,10.63
2019-01-20T12:40:44.419Z,11.27
2019-01-20T12:43:13.659Z,9.93
2019-01-20T12:45:42.950Z,10.70
2019-01-20T12:48:13.274Z,10.03
2019-01-20T12:50:43.005Z,9.53
2019-01-20T12:53:12.164Z,9.77
2019-01-20T12:55:41.851Z,11.17
2019-01-20T12:58:11.096Z,9.80
2019-01-20T13:00:40.258Z,9.97
2019-01-20T13:03:09.675Z,11.43
2019-01-20T13:05:40.030Z,11.77
2019-01-20T13:08:09.732Z,12.10
2019-01-20T13:10:39.737Z,12.33
2019-01-20T13:13:10.231Z,18.67
2019-01-20T13:15:43.356Z,11.03
2019-01-20T13:18:13.001Z,8.83
2019-01-20T13:20:43.775Z,8.73
2019-01-20T13:23:13.993Z,8.70
2019-01-20T13:25:43.714Z,8.87
2019-01-20T13:28:13.192Z,8.90
2019-01-20T13:30:44.389Z,7.77
2019-01-20T13:33:13.772Z,6.77
2019-01-20T13:35:42.973Z,7.73
2019-01-20T13:38:15.654Z,7.97
2019-01-20T13:40:58.861Z,7.40
2019-01-20T13:43:28.433Z,8.00
2019-01-20T13:45:57.795Z,7.87
2019-01-20T13:48:26.871Z,8.27
2019-01-20T13:50:56.025Z,8.37
2019-01-20T13:53:25.271Z,8.17
2019-01-20T13:56:01.039Z,8.47
2019-01-20T13:58:24.845Z,8.33
2019-01-20T14:00:53.880Z,9.13
2019-01-20T14:03:23.081Z,8.77
2019-01-20T14:05:52.317Z,9.13
2019-01-20T14:08:21.370Z,10.27
2019-01-20T14:10:50.506Z,7.77
2019-01-20T14:15:55.116Z,8.97
2019-01-20T14:18:24.369Z,9.03
2019-01-20T14:20:53.676Z,9.40
2019-01-20T14:23:22.830Z,9.50
2019-01-20T14:25:53.847Z,9.03
2019-01-20T14:28:23.389Z,9.23
2019-01-20T14:30:52.575Z,7.97
2019-01-20T14:33:22.689Z,8.53
2019-01-20T14:35:53.134Z,8.00
2019-01-20T14:38:22.503Z,7.67
2019-01-20T14:40:51.700Z,8.00
2019-01-20T14:43:22.232Z,7.90
2019-01-20T14:45:51.592Z,8.37
2019-01-20T14:48:21.208Z,7.67
2019-01-20T14:50:50.401Z,8.33
2019-01-20T14:53:19.543Z,8.40
2019-01-20T14:55:50.339Z,7.53
2019-01-20T14:58:21.730Z,7.63
2019-01-20T15:00:50.928Z,8.03
2019-01-20T15:03:20.234Z,8.70
2019-01-20T15:05:49.511Z,7.90
2019-01-20T15:08:19.897Z,8.13
2019-01-20T15:10:49.196Z,9.50
2019-01-20T15:13:18.397Z,8.50
2019-01-20T15:15:48.615Z,8.43
2019-01-20T15:18:18.024Z,8.37
2019-01-20T15:20:47.346Z,9.10
2019-01-20T15:23:22.591Z,8.93
2019-01-20T15:25:51.994Z,8.70
2019-01-20T15:28:21.356Z,8.73
2019-01-20T15:30:50.700Z,8.40
2019-01-20T15:33:20.008Z,9.60
2019-01-20T15:35:49.301Z,9.27
2019-01-20T15:38:18.722Z,8.83
2019-01-20T15:40:48.085Z,8.13
2019-01-20T15:43:18.838Z,10.70
2019-01-20T15:45:48.128Z,8.70
2019-01-20T15:48:17.448Z,7.83
2019-01-20T15:50:46.760Z,8.70
2019-01-20T15:53:16.207Z,8.83
2019-01-20T15:55:45.713Z,7.40
2019-01-20T15:58:15.557Z,7.40
2019-01-20T16:00:45.089Z,7.50
2019-01-20T16:03:14.439Z,8.03
2019-01-20T16:05:43.870Z,8.20
2019-01-20T16:08:13.262Z,8.13
2019-01-20T16:10:43.884Z,6.87
2019-01-20T16:13:13.583Z,8.27
2019-01-20T16:15:43.080Z,8.00
2019-01-20T16:18:14.296Z,8.43
2019-01-20T16:20:42.630Z,9.00
2019-01-20T16:23:11.935Z,9.17
2019-01-20T16:25:41.237Z,9.80
2019-01-20T16:28:12.573Z,8.27
2019-01-20T16:30:44.227Z,9.37
2019-01-20T16:33:14.486Z,9.70
2019-01-20T16:35:43.759Z,9.17
2019-01-20T16:38:13.449Z,10.10
2019-01-20T16:40:43.786Z,10.40
2019-01-20T16:43:14.008Z,9.37
2019-01-20T16:45:46.086Z,13.93
2019-01-20T16:48:15.531Z,14.43
2019-01-20T16:50:44.808Z,11.77
2019-01-20T16:53:14.139Z,15.03
2019-01-20T16:55:43.538Z,13.67
2019-01-20T16:58:13.077Z,16.43
2019-01-20T17:00:44.319Z,16.07
2019-01-20T17:03:13.633Z,14.77
2019-01-20T17:05:43.735Z,14.17
2019-01-20T17:08:13.162Z,13.87
2019-01-20T17:10:43.793Z,17.07
2019-01-20T17:13:13.511Z,14.70
2019-01-20T17:15:44.837Z,14.20
2019-01-20T17:18:16.082Z,13.27
2019-01-20T17:20:45.616Z,14.43
2019-01-20T17:23:14.976Z,15.43
2019-01-20T17:25:47.430Z,13.30
2019-01-20T17:28:16.837Z,14.47
2019-01-20T17:30:46.384Z,12.83
2019-01-20T17:33:16.050Z,18.47
2019-01-20T17:35:46.884Z,16.17
2019-01-20T17:38:16.216Z,17.07
2019-01-20T17:40:46.158Z,17.07
2019-01-20T17:43:15.402Z,16.97
2019-01-20T17:45:48.641Z,18.90
2019-01-20T17:48:15.169Z,16.73
2019-01-20T17:50:45.397Z,17.67
2019-01-20T17:53:15.777Z,18.50
2019-01-20T17:55:45.174Z,17.33
2019-01-20T17:58:14.484Z,10.63
2019-01-20T18:00:47.300Z,10.13
2019-01-20T18:03:16.810Z,7.07
2019-01-20T18:05:46.106Z,5.80
2019-01-20T18:08:15.325Z,6.27
2019-01-20T18:10:44.713Z,5.90
2019-01-20T18:13:14.095Z,5.50
2019-01-20T18:15:43.439Z,5.17
2019-01-20T18:18:12.773Z,5.00
2019-01-20T18:20:42.108Z,4.60
2019-01-20T18:23:11.364Z,4.07
2019-01-20T18:25:40.645Z,4.53
2019-01-20T18:28:09.929Z,3.93
2019-01-20T18:30:39.134Z,4.00
2019-01-20T18:33:08.473Z,3.17
2019-01-20T18:35:37.582Z,3.90
2019-01-20T18:38:07.828Z,5.30
2019-01-20T18:40:37.110Z,3.70
2019-01-20T18:43:07.614Z,2.70
2019-01-20T18:45:38.247Z,2.70
2019-01-20T18:48:07.502Z,4.57
2019-01-20T18:50:38.108Z,4.03
2019-01-20T18:53:07.439Z,3.23
2019-01-20T18:55:42.238Z,3.47
2019-01-20T18:58:11.435Z,3.27
2019-01-20T19:00:46.002Z,3.97
2019-01-20T19:03:15.267Z,3.37
2019-01-20T19:05:44.555Z,3.57
2019-01-20T19:08:14.577Z,4.37
2019-01-20T19:10:44.489Z,4.13
2019-01-20T19:13:13.791Z,4.73
2019-01-20T19:15:44.134Z,5.47
2019-01-20T19:18:18.842Z,5.87
2019-01-20T19:20:42.711Z,6.30
2019-01-20T19:23:12.029Z,5.73
2019-01-20T19:25:42.644Z,7.87
2019-01-20T19:28:12.197Z,11.83
2019-01-20T19:30:46.432Z,10.77
2019-01-20T19:33:15.763Z,10.77
2019-01-20T19:35:45.074Z,11.53
2019-01-20T19:38:14.300Z,13.03
2019-01-20T19:40:44.657Z,11.63
2019-01-20T19:43:13.970Z,13.17
2019-01-20T19:45:46.839Z,14.17
2019-01-20T19:48:20.181Z,14.60
2019-01-20T19:50:45.558Z,17.83
2019-01-20T19:53:14.828Z,18.73
2019-01-20T19:55:44.412Z,18.83
2019-01-20T19:58:17.998Z,17.93
2019-01-20T20:00:47.603Z,17.53
2019-01-20T20:03:16.796Z,15.70
2019-01-20T20:05:46.043Z,20.40
2019-01-20T20:08:15.414Z,18.83
2019-01-20T20:10:44.690Z,17.87
2019-01-20T20:13:13.891Z,17.30
2019-01-20T20:15:43.167Z,17.40
2019-01-20T20:18:12.448Z,15.83
2019-01-20T20:20:41.789Z,11.20
2019-01-20T20:23:11.105Z,12.50
2019-01-20T20:25:40.333Z,10.00
2019-01-20T20:28:09.641Z,12.67
2019-01-20T20:30:39.235Z,11.23
2019-01-20T20:33:10.178Z,8.97
2019-01-20T20:35:39.640Z,8.30
2019-01-20T20:38:09.083Z,6.70
2019-01-20T20:40:38.332Z,6.60
2019-01-20T20:43:07.812Z,6.93
2019-01-20T20:45:37.171Z,7.57
2019-01-20T20:48:06.451Z,7.37
2019-01-20T20:50:35.995Z,7.57
2019-01-20T20:53:05.520Z,6.73
2019-01-20T20:55:34.763Z,9.37
2019-01-20T20:58:04.097Z,8.30
2019-01-20T21:00:38.349Z,9.93
2019-01-20T21:03:11.239Z,13.90
2019-01-20T21:05:41.275Z,10.10
2019-01-20T21:08:10.462Z,11.27
2019-01-20T21:10:39.650Z,15.50
2019-01-20T21:13:08.933Z,10.97
2019-01-20T21:15:38.212Z,8.07
2019-01-20T21:18:07.619Z,7.33
2019-01-20T21:20:36.825Z,6.53
2019-01-20T21:23:12.156Z,6.13
2019-01-20T21:25:35.384Z,6.17
2019-01-20T21:28:05.788Z,5.87
2019-01-20T21:30:35.087Z,6.30
2019-01-20T21:33:04.370Z,6.57
2019-01-20T21:35:33.604Z,7.00
2019-01-20T21:38:06.866Z,7.10
2019-01-20T21:40:33.198Z,7.87
2019-01-20T21:43:02.538Z,9.87
2019-01-20T21:45:31.851Z,9.40
2019-01-20T21:48:02.604Z,10.37
2019-01-20T21:50:32.469Z,12.30
2019-01-20T21:53:02.704Z,11.47
2019-01-20T21:55:32.561Z,11.20
2019-01-20T21:58:01.743Z,9.77
2019-01-20T22:00:33.639Z,9.03
2019-01-20T22:03:02.982Z,13.03
2019-01-20T22:05:32.205Z,11.80
2019-01-20T22:08:02.278Z,14.67
2019-01-20T22:10:31.459Z,11.73
2019-01-20T22:13:02.074Z,8.97
2019-01-20T22:15:31.233Z,7.73
2019-01-20T22:18:04.742Z,8.47
2019-01-20T22:20:34.754Z,7.20
2019-01-20T22:23:04.028Z,6.90
2019-01-20T22:25:33.263Z,4.80
2019-01-20T22:28:03.169Z,5.53
2019-01-20T22:30:32.304Z,5.27
2019-01-20T22:33:02.246Z,6.27
2019-01-20T22:35:31.543Z,7.33
2019-01-20T22:38:00.938Z,6.57
2019-01-20T22:40:30.140Z,6.43
2019-01-20T22:43:00.491Z,6.30
2019-01-20T22:45:30.716Z,7.53
2019-01-20T22:48:00.110Z,11.80
2019-01-20T22:50:29.384Z,7.77
2019-01-20T22:52:58.560Z,7.07
2019-01-20T22:55:27.714Z,7.17
2019-01-20T22:58:00.941Z,8.10
2019-01-20T23:00:39.391Z,8.67
2019-01-20T23:03:08.635Z,9.60
2019-01-20T23:05:37.799Z,10.30
2019-01-20T23:08:06.949Z,10.00
2019-01-20T23:10:36.209Z,9.67
2019-01-20T23:13:05.581Z,9.63
2019-01-20T23:15:35.508Z,8.10
2019-01-20T23:18:05.198Z,7.73
2019-01-20T23:20:34.829Z,7.60
2019-01-20T23:23:04.130Z,8.27
2019-01-20T23:25:33.325Z,8.50
2019-01-20T23:28:02.879Z,8.00
2019-01-20T23:30:32.136Z,7.73
2019-01-20T23:33:02.315Z,9.00
2019-01-20T23:35:31.549Z,10.23
2019-01-20T23:38:00.705Z,9.57
2019-01-20T23:40:29.962Z,10.90
2019-01-20T23:42:59.088Z,12.27
2019-01-20T23:45:28.300Z,9.60
2019-01-20T23:47:57.485Z,8.27
2019-01-20T23:50:26.710Z,10.00
2019-01-20T23:52:55.832Z,10.40
2019-01-20T23:55:25.812Z,11.50
2019-01-20T23:57:55.057Z,10.40
